createdAt,value
2022-11-17T00:01:31.447Z,65.25
2022-11-17T00:04:03.996Z,65.48
2022-11-17T00:06:36.548Z,65.54
2022-11-17T00:09:12.301Z,65.13
2022-11-17T00:12:03.557Z,64.79
2022-11-17T00:14:37.076Z,65.36
2022-11-17T00:17:12.665Z,65.56
2022-11-17T00:20:03.795Z,66.02
2022-11-17T00:22:36.852Z,65.75
2022-11-17T00:25:09.644Z,65.21
2022-11-17T00:27:42.156Z,65.77
2022-11-17T00:30:34.996Z,65.90
2022-11-17T00:33:28.726Z,66.16
2022-11-17T00:36:01.305Z,65.29
2022-11-17T00:38:33.933Z,65.11
2022-11-17T00:41:06.644Z,65.41
2022-11-17T00:43:39.037Z,65.99
2022-11-17T00:46:11.528Z,65.22
2022-11-17T00:48:45.461Z,65.70
2022-11-17T00:51:18.520Z,65.93
2022-11-17T00:53:51.716Z,65.74
2022-11-17T00:56:25.932Z,65.93
2022-11-17T00:58:58.744Z,65.90
2022-11-17T01:01:31.859Z,65.48
2022-11-17T01:04:06.816Z,65.93
2022-11-17T01:06:41.314Z,65.35
2022-11-17T01:09:15.602Z,66.20
2022-11-17T01:11:49.914Z,65.67
2022-11-17T01:14:24.152Z,66.35
2022-11-17T01:16:56.628Z,65.75
2022-11-17T01:19:30.523Z,65.65
2022-11-17T01:22:03.350Z,66.66
2022-11-17T01:24:35.905Z,66.26
2022-11-17T01:27:08.356Z,66.53
2022-11-17T01:29:40.845Z,65.86
2022-11-17T01:32:13.377Z,66.43
2022-11-17T01:34:47.425Z,65.39
2022-11-17T01:37:20.011Z,65.84
2022-11-17T01:39:52.703Z,66.41
2022-11-17T01:42:27.406Z,66.41
2022-11-17T01:45:17.547Z,65.89
2022-11-17T01:47:52.191Z,65.52
2022-11-17T01:50:33.211Z,66.60
2022-11-17T01:53:08.804Z,65.98
2022-11-17T01:55:44.485Z,66.28
2022-11-17T01:58:21.577Z,65.90
2022-11-17T02:00:56.157Z,65.82
2022-11-17T02:03:33.425Z,65.95
2022-11-17T02:06:12.167Z,66.47
2022-11-17T02:08:47.347Z,66.91
2022-11-17T02:11:21.436Z,66.30
2022-11-17T02:13:56.339Z,66.41
2022-11-17T02:16:28.691Z,66.32
2022-11-17T02:19:01.135Z,65.99
2022-11-17T02:21:52.651Z,66.83
2022-11-17T02:24:48.547Z,66.58
2022-11-17T02:27:41.329Z,66.36
2022-11-17T02:30:16.876Z,66.06
2022-11-17T02:33:01.151Z,66.72
2022-11-17T02:35:46.015Z,67.10
2022-11-17T02:38:27.183Z,67.30
2022-11-17T02:41:08.396Z,66.35
2022-11-17T02:44:06.613Z,67.15
2022-11-17T02:46:45.792Z,66.45
2022-11-17T02:49:22.971Z,67.35
2022-11-17T02:51:57.607Z,66.78
2022-11-17T02:54:31.543Z,66.50
2022-11-17T02:57:04.307Z,67.36
2022-11-17T02:59:46.359Z,67.17
2022-11-17T03:02:40.966Z,67.08
2022-11-17T03:05:19.035Z,67.83
2022-11-17T03:08:13.272Z,66.88
2022-11-17T03:10:57.219Z,67.80
2022-11-17T03:13:43.506Z,67.30
2022-11-17T03:16:30.591Z,67.33
2022-11-17T03:19:12.678Z,67.26
2022-11-17T03:21:50.469Z,67.71
2022-11-17T03:24:28.701Z,67.38
2022-11-17T03:27:08.136Z,68.13
2022-11-17T03:29:44.871Z,68.11
2022-11-17T03:32:19.522Z,67.52
2022-11-17T03:34:57.375Z,68.28
2022-11-17T03:37:33.123Z,67.77
2022-11-17T03:40:10.046Z,68.56
2022-11-17T03:42:45.431Z,67.88
2022-11-17T03:45:22.520Z,67.82
2022-11-17T03:48:00.693Z,68.18
2022-11-17T03:50:35.381Z,67.52
2022-11-17T03:53:07.939Z,68.46
2022-11-17T03:55:47.772Z,68.23
2022-11-17T03:58:25.197Z,67.75
2022-11-17T04:01:00.337Z,68.46
2022-11-17T04:03:35.313Z,67.69
2022-11-17T04:06:08.147Z,68.79
2022-11-17T04:08:40.661Z,68.64
2022-11-17T04:11:31.807Z,68.43
2022-11-17T04:14:22.961Z,68.63
2022-11-17T04:16:55.379Z,68.66
2022-11-17T04:19:29.377Z,68.74
2022-11-17T04:22:02.116Z,67.96
2022-11-17T04:24:34.652Z,68.06
2022-11-17T04:27:25.490Z,68.09
2022-11-17T04:29:58.312Z,68.92
2022-11-17T04:32:31.180Z,68.98
2022-11-17T04:35:06.123Z,68.14
2022-11-17T04:37:39.087Z,69.11
2022-11-17T04:40:12.225Z,68.22
2022-11-17T04:42:47.841Z,68.88
2022-11-17T04:45:20.641Z,68.93
2022-11-17T04:47:53.613Z,68.69
2022-11-17T04:50:27.846Z,68.83
2022-11-17T04:53:00.455Z,68.49
2022-11-17T04:55:33.037Z,69.00
2022-11-17T04:58:05.651Z,68.72
2022-11-17T05:00:38.623Z,69.18
2022-11-17T05:03:11.483Z,68.83
2022-11-17T05:05:47.094Z,68.74
2022-11-17T05:08:19.947Z,69.21
2022-11-17T05:11:15.872Z,68.95
2022-11-17T05:13:50.303Z,69.16
2022-11-17T05:16:42.304Z,69.34
2022-11-17T05:19:17.099Z,69.65
2022-11-17T05:21:51.877Z,69.58
2022-11-17T05:24:24.747Z,69.22
2022-11-17T05:26:57.429Z,69.78
2022-11-17T05:29:30.215Z,68.86
2022-11-17T05:32:05.196Z,68.58
2022-11-17T05:34:37.813Z,69.31
2022-11-17T05:37:11.967Z,68.82
2022-11-17T05:39:44.542Z,68.81
2022-11-17T05:42:17.137Z,69.44
2022-11-17T05:44:49.826Z,69.57
2022-11-17T05:47:22.261Z,69.53
2022-11-17T05:49:54.858Z,69.56
2022-11-17T05:52:28.783Z,69.12
2022-11-17T05:55:01.298Z,69.67
2022-11-17T05:57:35.165Z,69.98
2022-11-17T06:00:09.109Z,69.63
2022-11-17T06:02:51.566Z,69.92
2022-11-17T06:05:25.716Z,69.64
2022-11-17T06:07:59.804Z,70.21
2022-11-17T06:10:34.078Z,69.91
2022-11-17T06:13:06.674Z,70.00
2022-11-17T06:15:39.850Z,69.67
2022-11-17T06:18:17.471Z,70.42
2022-11-17T06:20:52.380Z,69.49
2022-11-17T06:23:31.287Z,69.61
2022-11-17T06:26:07.671Z,69.83
2022-11-17T06:28:43.770Z,70.32
2022-11-17T06:31:17.369Z,69.74
2022-11-17T06:33:50.056Z,70.67
2022-11-17T06:36:22.918Z,69.88
2022-11-17T06:38:56.823Z,70.17
2022-11-17T06:41:29.605Z,69.62
2022-11-17T06:44:02.220Z,70.41
2022-11-17T06:46:38.229Z,70.64
2022-11-17T06:49:10.685Z,69.69
2022-11-17T06:51:45.429Z,70.05
2022-11-17T06:54:19.702Z,70.57
2022-11-17T06:56:52.747Z,70.29
2022-11-17T06:59:25.235Z,70.00
2022-11-17T07:01:57.709Z,69.73
2022-11-17T07:04:30.362Z,69.61
2022-11-17T07:07:02.987Z,69.74
2022-11-17T07:09:36.879Z,70.72
2022-11-17T07:12:09.836Z,70.40
2022-11-17T07:14:42.538Z,70.25
2022-11-17T07:17:15.129Z,70.25
2022-11-17T07:19:47.604Z,70.50
2022-11-17T07:22:20.220Z,70.65
2022-11-17T07:24:54.204Z,69.85
2022-11-17T07:27:26.752Z,70.16
2022-11-17T07:29:59.476Z,69.58
2022-11-17T07:32:33.382Z,70.71
2022-11-17T07:35:06.971Z,69.84
2022-11-17T07:37:39.547Z,70.57
2022-11-17T07:40:13.667Z,70.66
2022-11-17T07:42:49.092Z,69.68
2022-11-17T07:45:25.098Z,70.67
2022-11-17T07:48:01.831Z,70.42
2022-11-17T07:50:34.828Z,69.57
2022-11-17T07:53:07.521Z,70.24
2022-11-17T07:55:41.555Z,69.82
2022-11-17T07:58:14.093Z,70.04
2022-11-17T08:00:46.659Z,70.14
2022-11-17T08:03:19.279Z,69.67
2022-11-17T08:05:53.529Z,70.44
2022-11-17T08:08:26.115Z,70.06
2022-11-17T08:11:03.956Z,69.82
2022-11-17T08:13:37.072Z,69.89
2022-11-17T08:16:10.514Z,70.25
2022-11-17T08:18:45.985Z,69.51
2022-11-17T08:21:21.502Z,69.89
2022-11-17T08:23:55.366Z,69.45
2022-11-17T08:26:29.379Z,70.27
2022-11-17T08:29:02.184Z,69.74
2022-11-17T08:31:34.602Z,70.23
2022-11-17T08:34:07.280Z,69.64
2022-11-17T08:36:40.344Z,70.00
2022-11-17T08:39:13.364Z,69.55
2022-11-17T08:41:47.241Z,69.88
2022-11-17T08:44:19.855Z,69.66
2022-11-17T08:46:52.653Z,70.01
2022-11-17T08:49:27.721Z,70.12
2022-11-17T08:52:00.354Z,69.71
2022-11-17T08:54:33.286Z,69.60
2022-11-17T08:57:07.230Z,69.09
2022-11-17T08:59:39.827Z,68.80
2022-11-17T09:02:12.703Z,69.16
2022-11-17T09:04:52.601Z,69.25
2022-11-17T09:07:27.489Z,68.95
2022-11-17T09:10:09.630Z,68.93
2022-11-17T09:12:43.562Z,69.03
2022-11-17T09:15:16.442Z,69.87
2022-11-17T09:17:52.035Z,68.92
2022-11-17T09:20:24.836Z,69.29
2022-11-17T09:22:59.863Z,68.57
2022-11-17T09:25:32.538Z,68.92
2022-11-17T09:28:06.664Z,68.78
2022-11-17T09:30:39.264Z,69.70
2022-11-17T09:33:11.840Z,68.98
2022-11-17T09:35:44.401Z,69.06
2022-11-17T09:38:16.986Z,69.86
2022-11-17T09:40:50.005Z,69.56
2022-11-17T09:43:28.618Z,69.02
2022-11-17T09:46:17.469Z,68.89
2022-11-17T09:48:57.514Z,69.13
2022-11-17T09:51:32.194Z,68.84
2022-11-17T09:54:13.685Z,69.91
2022-11-17T09:56:51.530Z,69.85
2022-11-17T09:59:28.172Z,70.05
2022-11-17T10:02:00.859Z,70.02
2022-11-17T10:04:34.309Z,70.10
2022-11-17T10:07:09.981Z,70.37
2022-11-17T10:09:45.638Z,70.01
2022-11-17T10:12:21.142Z,70.12
2022-11-17T10:14:55.750Z,69.68
2022-11-17T10:17:28.193Z,69.98
2022-11-17T10:20:00.810Z,69.36
2022-11-17T10:22:36.273Z,70.22
2022-11-17T10:25:21.579Z,69.68
2022-11-17T10:27:56.936Z,70.06
2022-11-17T10:30:30.949Z,69.51
2022-11-17T10:33:05.407Z,69.34
2022-11-17T10:35:37.917Z,69.38
2022-11-17T10:38:17.764Z,69.34
2022-11-17T10:40:52.497Z,69.53
2022-11-17T10:43:27.673Z,69.83
2022-11-17T10:46:05.545Z,69.61
2022-11-17T10:48:40.841Z,69.20
2022-11-17T10:51:23.611Z,69.70
2022-11-17T10:54:05.009Z,69.04
2022-11-17T10:56:42.234Z,69.25
2022-11-17T10:59:18.482Z,69.84
2022-11-17T11:01:52.513Z,69.34
2022-11-17T11:04:31.497Z,69.02
2022-11-17T11:07:10.113Z,69.03
2022-11-17T11:09:48.650Z,69.62
2022-11-17T11:12:33.003Z,70.08
2022-11-17T11:15:09.542Z,69.53
2022-11-17T11:17:43.467Z,69.43
2022-11-17T11:20:18.419Z,69.30
2022-11-17T11:22:57.541Z,69.69
2022-11-17T11:25:38.316Z,69.05
2022-11-17T11:28:23.130Z,69.66
2022-11-17T11:31:06.381Z,69.51
2022-11-17T11:33:47.774Z,68.88
2022-11-17T11:36:29.881Z,69.44
2022-11-17T11:39:13.177Z,69.83
2022-11-17T11:42:03.366Z,68.82
2022-11-17T11:44:54.900Z,69.34
2022-11-17T11:47:43.486Z,69.51
2022-11-17T11:50:22.543Z,69.81
2022-11-17T11:52:59.902Z,68.94
2022-11-17T11:55:35.458Z,69.51
2022-11-17T11:58:17.442Z,69.07
2022-11-17T12:00:54.336Z,69.03
2022-11-17T12:03:35.010Z,69.43
2022-11-17T12:06:35.639Z,69.92
2022-11-17T12:09:40.259Z,69.31
2022-11-17T12:12:16.030Z,69.66
2022-11-17T12:15:12.311Z,70.10
2022-11-17T12:17:59.398Z,69.88
2022-11-17T12:20:54.262Z,70.01
2022-11-17T12:23:41.220Z,69.20
2022-11-17T12:26:22.832Z,69.15
2022-11-17T12:29:27.875Z,69.91
2022-11-17T12:32:02.291Z,69.43
2022-11-17T12:34:37.344Z,69.92
2022-11-17T12:37:23.647Z,70.11
2022-11-17T12:40:28.843Z,70.03
2022-11-17T12:43:24.171Z,69.75
2022-11-17T12:46:14.571Z,69.53
2022-11-17T12:48:57.623Z,69.82
2022-11-17T12:51:37.181Z,69.88
2022-11-17T12:54:22.941Z,69.15
2022-11-17T12:57:03.290Z,69.28
2022-11-17T12:59:55.178Z,69.82
2022-11-17T13:02:46.771Z,69.56
2022-11-17T13:05:21.613Z,69.77
2022-11-17T13:08:10.288Z,69.44
2022-11-17T13:10:42.798Z,69.10
2022-11-17T13:13:18.137Z,69.26
2022-11-17T13:15:54.763Z,69.74
2022-11-17T13:18:32.028Z,69.58
2022-11-17T13:21:15.354Z,68.78
2022-11-17T13:23:47.923Z,69.49
2022-11-17T13:26:22.106Z,68.62
2022-11-17T13:29:08.326Z,69.09
2022-11-17T13:31:42.269Z,68.61
2022-11-17T13:34:18.071Z,69.04
2022-11-17T13:36:54.410Z,68.50
2022-11-17T13:39:27.991Z,68.49
2022-11-17T13:42:02.788Z,68.20
2022-11-17T13:44:35.605Z,68.47
2022-11-17T13:47:26.760Z,68.29
2022-11-17T13:50:37.274Z,69.17
2022-11-17T13:53:25.637Z,68.78
2022-11-17T13:55:58.221Z,68.97
2022-11-17T13:58:37.981Z,68.49
2022-11-17T14:01:13.793Z,69.09
2022-11-17T14:03:47.820Z,69.13
2022-11-17T14:06:20.440Z,68.63
2022-11-17T14:09:04.688Z,68.35
2022-11-17T14:11:41.720Z,68.68
2022-11-17T14:14:18.698Z,68.98
2022-11-17T14:16:51.459Z,68.33
2022-11-17T14:19:31.269Z,68.11
2022-11-17T14:22:26.211Z,67.68
2022-11-17T14:25:06.063Z,67.07
2022-11-17T14:27:40.639Z,67.38
2022-11-17T14:30:14.121Z,67.45
2022-11-17T14:32:46.643Z,66.54
2022-11-17T14:35:20.532Z,66.60
2022-11-17T14:37:53.106Z,67.40
2022-11-17T14:40:25.777Z,67.54
2022-11-17T14:42:58.282Z,66.70
2022-11-17T14:45:30.986Z,66.62
2022-11-17T14:48:06.264Z,67.13
2022-11-17T14:50:40.622Z,67.17
2022-11-17T14:53:13.095Z,67.31
2022-11-17T14:55:45.607Z,67.08
2022-11-17T14:58:18.698Z,67.65
2022-11-17T15:00:51.574Z,67.30
2022-11-17T15:03:24.203Z,67.43
2022-11-17T15:05:58.210Z,67.96
2022-11-17T15:08:30.850Z,67.36
2022-11-17T15:11:03.493Z,67.67
2022-11-17T15:13:35.941Z,67.91
2022-11-17T15:16:08.821Z,68.20
2022-11-17T15:18:44.107Z,68.12
2022-11-17T15:21:18.117Z,69.05
2022-11-17T15:23:50.786Z,68.43
2022-11-17T15:26:26.463Z,68.62
2022-11-17T15:28:59.424Z,69.05
2022-11-17T15:31:32.018Z,68.57
2022-11-17T15:34:04.505Z,68.87
2022-11-17T15:36:38.484Z,68.81
2022-11-17T15:39:11.238Z,69.04
2022-11-17T15:41:44.133Z,68.64
2022-11-17T15:44:18.960Z,69.01
2022-11-17T15:46:51.825Z,68.66
2022-11-17T15:49:24.400Z,68.94
2022-11-17T15:51:58.525Z,69.48
2022-11-17T15:54:31.024Z,69.21
2022-11-17T15:57:03.449Z,69.38
2022-11-17T15:59:36.039Z,69.70
2022-11-17T16:02:09.254Z,69.51
2022-11-17T16:04:42.419Z,69.28
2022-11-17T16:07:16.573Z,69.32
2022-11-17T16:09:50.467Z,68.69
2022-11-17T16:12:23.277Z,68.95
2022-11-17T16:14:55.831Z,68.82
2022-11-17T16:17:28.285Z,68.88
2022-11-17T16:20:00.927Z,68.96
2022-11-17T16:22:37.248Z,69.42
2022-11-17T16:25:10.644Z,69.12
2022-11-17T16:27:43.170Z,69.75
2022-11-17T16:30:16.636Z,69.55
2022-11-17T16:32:49.447Z,69.01
2022-11-17T16:35:21.900Z,70.02
2022-11-17T16:37:55.887Z,70.08
2022-11-17T16:40:28.981Z,70.73
2022-11-17T16:43:01.769Z,70.92
2022-11-17T16:45:42.825Z,70.57
2022-11-17T16:48:15.676Z,70.05
2022-11-17T16:50:48.384Z,69.51
2022-11-17T16:53:22.844Z,69.98
2022-11-17T16:56:03.274Z,69.99
2022-11-17T16:58:36.027Z,69.38
2022-11-17T17:01:13.539Z,70.37
2022-11-17T17:03:46.357Z,70.22
2022-11-17T17:06:19.196Z,70.02
2022-11-17T17:08:55.461Z,69.80
2022-11-17T17:11:29.472Z,69.07
2022-11-17T17:14:04.820Z,69.47
2022-11-17T17:16:38.289Z,69.75
2022-11-17T17:19:12.613Z,69.58
2022-11-17T17:21:45.842Z,69.29
2022-11-17T17:24:19.947Z,69.57
2022-11-17T17:26:52.516Z,69.95
2022-11-17T17:29:25.147Z,69.66
2022-11-17T17:31:57.815Z,69.50
2022-11-17T17:34:30.644Z,69.63
2022-11-17T17:37:03.434Z,69.13
2022-11-17T17:39:38.151Z,70.02
2022-11-17T17:42:10.875Z,69.53
2022-11-17T17:44:43.618Z,69.63
2022-11-17T17:47:16.206Z,69.68
2022-11-17T17:49:49.002Z,70.10
2022-11-17T17:52:21.791Z,69.61
2022-11-17T17:54:55.934Z,69.32
2022-11-17T17:57:32.789Z,68.94
2022-11-17T18:00:07.828Z,69.75
2022-11-17T18:02:40.755Z,69.61
2022-11-17T18:05:13.609Z,70.06
2022-11-17T18:07:46.174Z,68.86
2022-11-17T18:10:20.121Z,69.18
2022-11-17T18:12:52.891Z,69.19
2022-11-17T18:15:25.809Z,69.66
2022-11-17T18:17:58.357Z,69.27
2022-11-17T18:20:30.989Z,69.60
2022-11-17T18:23:03.689Z,69.46
2022-11-17T18:25:37.724Z,69.10
2022-11-17T18:28:10.220Z,69.47
2022-11-17T18:30:42.844Z,69.83
2022-11-17T18:33:16.470Z,69.35
2022-11-17T18:35:49.194Z,69.75
2022-11-17T18:38:21.729Z,69.97
2022-11-17T18:41:04.221Z,69.87
2022-11-17T18:43:37.701Z,69.65
2022-11-17T18:46:13.330Z,69.49
2022-11-17T18:48:47.866Z,69.20
2022-11-17T18:51:21.793Z,69.97
2022-11-17T18:53:56.294Z,69.17
2022-11-17T18:56:33.419Z,69.71
2022-11-17T18:59:11.719Z,69.69
2022-11-17T19:01:45.087Z,70.25
2022-11-17T19:04:18.474Z,69.61
2022-11-17T19:06:51.729Z,69.80
2022-11-17T19:09:24.359Z,70.35
2022-11-17T19:11:58.519Z,70.14
2022-11-17T19:14:31.169Z,70.36
2022-11-17T19:17:03.902Z,69.55
2022-11-17T19:19:36.914Z,70.44
2022-11-17T19:22:09.741Z,70.34
2022-11-17T19:24:43.987Z,69.12
2022-11-17T19:27:18.127Z,69.50
2022-11-17T19:29:50.784Z,69.39
2022-11-17T19:32:23.540Z,69.59
2022-11-17T19:35:03.558Z,69.01
2022-11-17T19:37:42.602Z,69.97
2022-11-17T19:40:15.602Z,69.35
2022-11-17T19:42:50.788Z,68.96
2022-11-17T19:45:24.390Z,69.77
2022-11-17T19:47:57.003Z,70.03
2022-11-17T19:50:30.678Z,68.81
2022-11-17T19:53:03.337Z,69.40
2022-11-17T19:55:35.850Z,69.22
2022-11-17T19:58:09.798Z,68.93
2022-11-17T20:00:42.304Z,69.18
2022-11-17T20:03:14.761Z,69.29
2022-11-17T20:05:47.406Z,68.95
2022-11-17T20:08:20.078Z,69.76
2022-11-17T20:10:52.507Z,70.14
2022-11-17T20:13:26.365Z,69.70
2022-11-17T20:15:59.628Z,69.21
2022-11-17T20:18:32.452Z,69.54
2022-11-17T20:21:05.653Z,69.45
2022-11-17T20:23:39.522Z,68.90
2022-11-17T20:26:14.063Z,68.98
2022-11-17T20:28:48.870Z,70.05
2022-11-17T20:31:24.391Z,69.94
2022-11-17T20:33:58.638Z,69.33
2022-11-17T20:36:32.782Z,69.38
2022-11-17T20:39:06.719Z,69.04
2022-11-17T20:41:39.135Z,69.04
2022-11-17T20:44:24.192Z,69.52
2022-11-17T20:46:56.980Z,69.53
2022-11-17T20:49:29.797Z,69.27
2022-11-17T20:52:02.390Z,69.23
2022-11-17T20:54:35.693Z,68.94
2022-11-17T20:57:08.859Z,69.57
2022-11-17T20:59:43.751Z,69.47
2022-11-17T21:02:16.164Z,68.69
2022-11-17T21:04:48.842Z,69.08
2022-11-17T21:07:21.543Z,68.75
2022-11-17T21:09:54.187Z,69.12
2022-11-17T21:12:27.340Z,68.74
2022-11-17T21:15:01.365Z,69.20
2022-11-17T21:17:54.561Z,69.33
2022-11-17T21:20:30.112Z,69.86
2022-11-17T21:23:02.612Z,69.99
2022-11-17T21:25:36.403Z,69.81
2022-11-17T21:28:09.554Z,70.11
2022-11-17T21:30:43.611Z,69.23
2022-11-17T21:33:16.086Z,69.70
2022-11-17T21:35:48.542Z,69.41
2022-11-17T21:38:21.093Z,69.68
2022-11-17T21:40:53.746Z,69.75
2022-11-17T21:43:26.119Z,70.37
2022-11-17T21:46:03.691Z,69.68
2022-11-17T21:48:37.424Z,70.14
2022-11-17T21:51:15.538Z,70.22
2022-11-17T21:53:52.194Z,70.36
2022-11-17T21:56:26.936Z,69.96
2022-11-17T21:59:01.107Z,69.87
2022-11-17T22:01:35.353Z,69.86
2022-11-17T22:04:08.019Z,69.52
2022-11-17T22:06:40.460Z,69.53
2022-11-17T22:09:13.479Z,69.76
2022-11-17T22:11:46.370Z,69.73
2022-11-17T22:14:20.227Z,70.21
2022-11-17T22:16:55.535Z,69.31
2022-11-17T22:19:31.022Z,69.37
2022-11-17T22:22:03.511Z,70.02
2022-11-17T22:24:38.717Z,70.21
2022-11-17T22:27:12.246Z,69.97
2022-11-17T22:29:44.822Z,70.20
2022-11-17T22:32:18.922Z,70.22
2022-11-17T22:34:51.415Z,69.53
2022-11-17T22:37:24.276Z,69.73
2022-11-17T22:39:56.848Z,70.11
2022-11-17T22:42:29.521Z,69.87
2022-11-17T22:45:01.911Z,69.99
2022-11-17T22:47:36.996Z,69.85
2022-11-17T22:50:10.282Z,69.83
2022-11-17T22:52:43.066Z,69.76
2022-11-17T22:55:15.593Z,69.89
2022-11-17T22:57:48.296Z,70.60
2022-11-17T23:00:21.484Z,69.68
2022-11-17T23:02:55.602Z,69.94
2022-11-17T23:05:28.130Z,69.56
2022-11-17T23:08:04.114Z,70.50
2022-11-17T23:10:39.317Z,70.65
2022-11-17T23:13:11.914Z,70.53
2022-11-17T23:15:44.338Z,70.59
2022-11-17T23:18:18.200Z,70.55
2022-11-17T23:20:50.937Z,70.78
2022-11-17T23:23:23.483Z,70.19
2022-11-17T23:26:00.639Z,70.43
2022-11-17T23:28:33.244Z,70.72
2022-11-17T23:31:07.813Z,71.22
2022-11-17T23:33:43.121Z,70.38
2022-11-17T23:36:17.802Z,70.18
2022-11-17T23:38:51.483Z,70.37
2022-11-17T23:41:24.240Z,71.10
2022-11-17T23:43:56.943Z,70.24
2022-11-17T23:46:29.475Z,70.62
2022-11-17T23:49:03.655Z,70.41
2022-11-17T23:51:36.473Z,70.22
2022-11-17T23:54:12.025Z,70.62
2022-11-17T23:56:44.450Z,71.05
2022-11-17T23:59:17.275Z,70.48
